Time;durP1;ratioP1;P1;durP2;ratioP2;P2;SDS_P1;SDS_P2;PMS_P1;PMS_P2;Temp;Humidity;BMP_temperature;BMP_pressure;BME280_temperature;BME280_humidity;BME280_pressure;Samples;Min_cycle;Max_cycle;Signal;HPM_P1;HPM_P2
2021/07/14 00:00:21;;;;;;;0.10;0.10;;;;;;;18.74;94.60;100318.63;5041781;28;20064;-88
2021/07/14 00:02:55;;;;;;;0.10;0.10;;;;;;;18.81;94.38;100305.91;5041053;28;20049;-89
2021/07/14 00:05:26;;;;;;;0.13;0.13;;;;;;;18.78;94.06;100303.00;5029219;28;20068;-89
2021/07/14 00:08:01;;;;;;;0.10;0.10;;;;;;;18.79;94.23;100312.91;5051169;28;20397;-86
2021/07/14 00:10:37;;;;;;;0.32;0.20;;;;;;;18.70;94.39;100302.00;5049613;28;20045;-89
2021/07/14 00:13:25;;;;;;;0.10;0.10;;;;;;;18.69;94.49;100305.91;5047021;28;20056;-89
2021/07/14 00:24:35;;;;;;;0.10;0.10;;;;;;;18.62;94.87;100298.19;5042449;28;20828;-89
2021/07/14 00:27:10;;;;;;;0.10;0.10;;;;;;;18.58;94.50;100293.72;5048358;28;20484;-89
2021/07/14 00:29:49;;;;;;;0.10;0.10;;;;;;;18.55;94.91;100299.91;5031711;28;20409;-89
2021/07/14 00:32:24;;;;;;;0.10;0.10;;;;;;;18.50;94.85;100281.66;5030327;28;20053;-90
2021/07/14 00:34:58;;;;;;;0.30;0.20;;;;;;;18.47;95.14;100272.13;5025478;28;20060;-90
2021/07/14 00:37:26;;;;;;;0.10;0.10;;;;;;;18.51;95.22;100277.75;5023741;28;20053;-90
2021/07/14 00:40:01;;;;;;;0.10;0.10;;;;;;;18.54;94.89;100274.31;5045455;28;20045;-87
2021/07/14 00:42:35;;;;;;;0.10;0.10;;;;;;;18.68;94.10;100269.28;5028124;28;20405;-90
2021/07/14 00:45:10;;;;;;;0.10;0.10;;;;;;;18.63;94.30;100254.88;5034789;28;20049;-89
2021/07/14 00:47:49;;;;;;;0.10;0.10;;;;;;;18.74;94.04;100264.31;5042215;28;20561;-89
2021/07/14 00:50:23;;;;;;;0.10;0.10;;;;;;;18.79;93.77;100266.81;5032141;28;20053;-89
2021/07/14 00:52:56;;;;;;;0.10;0.10;;;;;;;18.69;94.15;100270.84;5046094;28;20050;-89
2021/07/14 00:55:31;;;;;;;0.10;0.10;;;;;;;18.63;94.45;100261.22;5043007;28;20036;-88
2021/07/14 00:58:08;;;;;;;0.10;0.10;;;;;;;18.62;93.97;100264.31;5029718;28;20060;-90
2021/07/14 01:00:37;;;;;;;0.20;0.20;;;;;;;18.53;94.49;100261.66;5047256;28;20041;-89
2021/07/14 01:03:05;;;;;;;0.20;0.20;;;;;;;18.68;94.12;100262.94;5047662;28;20118;-89
2021/07/14 01:05:43;;;;;;;0.10;0.10;;;;;;;18.66;94.03;100271.56;5043778;28;20497;-88
2021/07/14 01:08:18;;;;;;;0.10;0.10;;;;;;;18.60;94.57;100274.88;5038863;28;20543;-90
2021/07/14 01:11:03;;;;;;;0.10;0.10;;;;;;;18.51;94.78;100266.72;5042929;28;20049;-89
2021/07/14 01:13:43;;;;;;;0.10;0.10;;;;;;;18.62;94.58;100272.59;5032031;28;20052;-90
2021/07/14 01:16:20;;;;;;;0.10;0.10;;;;;;;18.61;94.17;100268.22;5022380;28;20151;-90
2021/07/14 01:18:59;;;;;;;0.10;0.10;;;;;;;18.64;94.09;100262.84;5021500;28;20385;-88
2021/07/14 01:21:36;;;;;;;0.10;0.10;;;;;;;18.56;94.56;100255.50;5032478;28;20486;-89
2021/07/14 01:24:13;;;;;;;0.20;0.20;;;;;;;18.58;94.48;100263.41;5052616;28;20059;-88
2021/07/14 01:27:04;;;;;;;0.45;0.20;;;;;;;18.47;95.21;100265.81;5041496;28;20045;-88
2021/07/14 01:29:43;;;;;;;0.10;0.10;;;;;;;18.43;95.28;100254.66;5033518;28;20052;-88
2021/07/14 01:32:21;;;;;;;0.10;0.10;;;;;;;18.51;94.89;100255.72;5030107;28;20402;-89
2021/07/14 01:34:59;;;;;;;0.10;0.10;;;;;;;18.47;94.99;100246.53;5041768;28;20039;-89
2021/07/14 01:37:35;;;;;;;0.10;0.10;;;;;;;18.49;94.89;100247.78;5026793;28;20045;-89
2021/07/14 01:40:10;;;;;;;0.10;0.10;;;;;;;18.41;94.77;100229.41;5042820;28;20059;-89
2021/07/14 01:42:46;;;;;;;0.10;0.10;;;;;;;18.49;95.04;100236.78;5038598;28;20054;-88
2021/07/14 01:45:21;;;;;;;0.20;0.20;;;;;;;18.44;95.24;100231.47;5038512;28;20047;-89
2021/07/14 01:47:55;;;;;;;0.20;0.20;;;;;;;18.47;95.26;100239.06;5044091;28;20053;-89
2021/07/14 01:50:33;;;;;;;0.10;0.10;;;;;;;18.47;94.49;100233.53;5046729;28;20044;-89
2021/07/14 01:53:09;;;;;;;0.10;0.10;;;;;;;18.41;94.75;100223.09;5044760;28;20037;-89
2021/07/14 01:55:47;;;;;;;0.10;0.10;;;;;;;18.42;95.41;100233.78;5044257;28;20052;-90
2021/07/14 01:58:27;;;;;;;0.10;0.10;;;;;;;18.44;95.38;100225.97;5017649;28;20064;-89
2021/07/14 02:01:01;;;;;;;0.20;0.20;;;;;;;18.47;95.21;100230.00;5021272;28;20519;-90
2021/07/14 02:03:56;;;;;;;0.10;0.10;;;;;;;18.40;95.06;100216.00;5049375;28;20466;-87
2021/07/14 02:06:29;;;;;;;0.10;0.10;;;;;;;18.43;95.38;100218.84;5049348;28;20037;-88
2021/07/14 02:09:03;;;;;;;0.10;0.10;;;;;;;18.35;95.16;100208.75;5027938;28;20056;-89
2021/07/14 02:11:43;;;;;;;0.10;0.10;;;;;;;18.49;95.60;100213.91;5032671;28;20055;-88
2021/07/14 02:14:18;;;;;;;0.10;0.10;;;;;;;18.34;95.91;100210.69;5027199;28;20045;-89
2021/07/14 02:16:48;;;;;;;0.20;0.20;;;;;;;18.47;95.41;100214.25;5023096;28;20048;-90
2021/07/14 02:19:22;;;;;;;0.10;0.10;;;;;;;18.39;95.37;100206.91;5040680;28;20046;-89
2021/07/14 02:21:51;;;;;;;0.10;0.10;;;;;;;18.31;95.79;100200.38;5045124;28;20045;-90
2021/07/14 02:24:24;;;;;;;0.10;0.10;;;;;;;18.27;96.18;100198.63;5031735;28;20053;-88
2021/07/14 02:27:04;;;;;;;0.20;0.20;;;;;;;18.29;96.02;100188.09;5042957;28;20056;-90
2021/07/14 02:29:40;;;;;;;0.20;0.20;;;;;;;18.23;96.81;100195.78;5048174;28;20063;-91
2021/07/14 02:32:13;;;;;;;0.20;0.20;;;;;;;18.33;96.34;100198.06;5036654;28;20053;-89
2021/07/14 02:34:49;;;;;;;0.10;0.10;;;;;;;18.32;96.17;100203.94;5047424;28;20057;-89
2021/07/14 02:37:31;;;;;;;0.10;0.10;;;;;;;18.28;96.09;100201.03;5029684;28;20470;-89
2021/07/14 02:40:01;;;;;;;0.10;0.10;;;;;;;18.28;96.59;100203.81;5026554;28;20509;-89
2021/07/14 02:42:36;;;;;;;0.10;0.10;;;;;;;18.25;96.50;100201.75;5030223;28;20044;-90
2021/07/14 02:45:11;;;;;;;0.15;0.15;;;;;;;18.32;96.40;100209.44;5025517;28;20049;-89
2021/07/14 02:47:47;;;;;;;0.15;0.10;;;;;;;18.23;97.02;100193.03;5043724;28;20057;-88
2021/07/14 02:50:24;;;;;;;0.10;0.10;;;;;;;18.25;96.80;100200.94;5027375;28;20044;-88
2021/07/14 02:53:04;;;;;;;0.10;0.10;;;;;;;18.43;96.01;100204.28;5047799;28;20048;-90
2021/07/14 02:55:44;;;;;;;0.10;0.10;;;;;;;18.38;96.16;100210.84;5024361;28;20052;-90
2021/07/14 02:58:18;;;;;;;0.15;0.15;;;;;;;18.46;96.07;100204.41;5047188;28;20049;-90
2021/07/14 03:00:54;;;;;;;0.10;0.10;;;;;;;18.43;96.35;100210.56;5040209;28;20037;-90
2021/07/14 03:03:28;;;;;;;0.10;0.10;;;;;;;18.45;96.40;100211.06;5041144;28;20052;-90
2021/07/14 03:06:04;;;;;;;0.10;0.10;;;;;;;18.39;96.62;100212.41;5040498;28;20042;-89
2021/07/14 03:08:39;;;;;;;0.20;0.20;;;;;;;18.38;96.77;100208.06;5040079;28;20501;-90
2021/07/14 03:11:13;;;;;;;0.10;0.10;;;;;;;18.44;96.78;100214.16;5026204;28;20619;-89
2021/07/14 03:13:48;;;;;;;0.10;0.10;;;;;;;18.55;96.63;100223.56;5041875;28;20040;-89
2021/07/14 03:16:19;;;;;;;0.10;0.10;;;;;;;18.55;95.78;100242.84;5032335;28;20060;-91
2021/07/14 03:18:50;;;;;;;0.10;0.10;;;;;;;18.48;95.78;100246.19;5028373;28;20050;-89
2021/07/14 03:21:25;;;;;;;0.10;0.10;;;;;;;18.43;96.17;100245.59;5022534;28;20064;-90
2021/07/14 03:23:55;;;;;;;0.10;0.10;;;;;;;18.41;96.74;100250.63;5034761;28;20052;-88
2021/07/14 03:26:25;;;;;;;0.10;0.10;;;;;;;18.42;96.41;100255.00;5047582;28;20037;-90
2021/07/14 03:28:59;;;;;;;0.10;0.10;;;;;;;18.39;96.41;100255.69;5019473;28;20053;-88
2021/07/14 03:31:34;;;;;;;0.10;0.10;;;;;;;18.47;96.26;100255.59;5034434;28;20048;-90
2021/07/14 03:34:08;;;;;;;0.10;0.10;;;;;;;18.49;96.35;100271.75;5031109;28;20060;-88
2021/07/14 03:36:45;;;;;;;0.15;0.15;;;;;;;18.43;96.90;100268.44;5030034;28;20060;-91
2021/07/14 03:39:18;;;;;;;0.20;0.20;;;;;;;18.49;96.46;100278.09;5047030;28;20060;-90
2021/07/14 03:41:53;;;;;;;0.20;0.20;;;;;;;18.53;96.65;100276.25;5048713;28;20295;-90
2021/07/14 03:44:27;;;;;;;0.17;0.17;;;;;;;18.49;96.37;100266.25;5047013;28;20033;-90
2021/07/14 03:46:58;;;;;;;0.10;0.10;;;;;;;18.52;96.26;100258.13;5047066;28;20045;-89
2021/07/14 03:49:33;;;;;;;0.10;0.10;;;;;;;18.54;96.51;100268.78;5046084;28;20052;-89
2021/07/14 03:52:07;;;;;;;0.10;0.10;;;;;;;18.66;95.99;100274.31;5040891;28;20060;-90
2021/07/14 03:54:41;;;;;;;0.10;0.10;;;;;;;18.61;96.51;100276.50;5052413;28;20049;-90
2021/07/14 03:57:15;;;;;;;0.10;0.10;;;;;;;18.57;95.99;100267.31;5045728;28;20120;-90
2021/07/14 03:59:50;;;;;;;0.20;0.20;;;;;;;18.80;95.62;100267.66;5052204;28;20048;-89
2021/07/14 04:02:25;;;;;;;0.10;0.10;;;;;;;18.66;95.62;100268.00;5038187;28;20414;-90
2021/07/14 04:04:59;;;;;;;0.10;0.10;;;;;;;18.66;95.58;100281.78;5044805;28;20057;-90
2021/07/14 04:07:34;;;;;;;0.10;0.10;;;;;;;18.62;96.28;100273.38;5031755;28;20049;-89
2021/07/14 04:10:03;;;;;;;0.10;0.10;;;;;;;18.62;96.66;100284.41;5042900;28;20056;-89
2021/07/14 04:12:37;;;;;;;0.15;0.15;;;;;;;18.61;96.18;100282.00;5029669;28;20474;-88
2021/07/14 04:15:11;;;;;;;0.10;0.10;;;;;;;18.53;96.47;100276.25;5032018;28;20057;-90
2021/07/14 04:17:47;;;;;;;0.10;0.10;;;;;;;18.57;96.92;100281.09;5039629;28;20583;-87
2021/07/14 04:20:21;;;;;;;0.10;0.10;;;;;;;18.60;96.62;100291.41;5044697;28;20051;-89
2021/07/14 04:22:55;;;;;;;0.10;0.10;;;;;;;18.60;96.57;100283.16;5029172;28;20052;-89
2021/07/14 04:25:23;;;;;;;0.10;0.10;;;;;;;18.62;96.45;100286.38;5046472;28;20049;-88
2021/07/14 04:27:51;;;;;;;0.10;0.10;;;;;;;18.67;96.78;100281.44;5043487;28;20045;-90
2021/07/14 04:30:20;;;;;;;0.10;0.10;;;;;;;18.64;97.03;100275.78;5021932;28;20064;-89
2021/07/14 04:32:55;;;;;;;0.10;0.10;;;;;;;18.64;95.93;100268.34;5054152;28;20055;-89
2021/07/14 04:35:28;;;;;;;0.10;0.10;;;;;;;18.73;96.07;100278.47;5033437;28;20045;-90
2021/07/14 04:38:02;;;;;;;0.20;0.20;;;;;;;18.68;95.52;100269.28;5030308;28;20048;-89
2021/07/14 04:40:30;;;;;;;0.10;0.10;;;;;;;18.74;96.04;100280.88;5045818;28;20045;-89
2021/07/14 04:43:04;;;;;;;0.10;0.10;;;;;;;18.76;95.64;100277.75;5038053;28;20045;-89
2021/07/14 04:45:39;;;;;;;0.10;0.10;;;;;;;18.76;95.90;100277.75;5045968;28;20052;-89
2021/07/14 04:48:14;;;;;;;0.10;0.10;;;;;;;18.76;95.85;100291.53;5042720;28;20045;-89
2021/07/14 04:50:47;;;;;;;0.10;0.10;;;;;;;18.75;96.16;100287.16;5029855;28;20071;-87
2021/07/14 04:53:21;;;;;;;0.20;0.20;;;;;;;18.76;95.63;100286.81;5016075;28;20061;-89
2021/07/14 04:55:54;;;;;;;0.15;0.10;;;;;;;18.69;96.38;100283.84;5029407;28;20060;-87
2021/07/14 04:58:23;;;;;;;0.10;0.10;;;;;;;18.73;95.87;100281.22;5052059;28;20409;-89
2021/07/14 05:00:57;;;;;;;0.10;0.10;;;;;;;18.66;95.86;100265.25;5033353;28;20049;-88
2021/07/14 05:03:32;;;;;;;0.10;0.10;;;;;;;18.73;96.13;100270.97;5043380;28;20052;-88
2021/07/14 05:06:05;;;;;;;0.10;0.10;;;;;;;18.80;96.14;100271.19;5044329;28;20044;-89
2021/07/14 05:08:34;;;;;;;0.75;0.10;;;;;;;18.79;96.11;100282.56;5021814;28;20061;-88
2021/07/14 05:11:07;;;;;;;0.20;0.20;;;;;;;18.83;96.61;100270.50;5028001;28;20061;-87
2021/07/14 05:13:36;;;;;;;0.10;0.10;;;;;;;18.82;96.48;100257.06;5032928;28;20615;-89
2021/07/14 05:16:11;;;;;;;0.10;0.10;;;;;;;18.72;96.48;100244.56;5038696;28;20053;-87
2021/07/14 05:18:42;;;;;;;0.10;0.10;;;;;;;18.84;96.49;100269.34;5031802;28;20052;-90
2021/07/14 05:21:15;;;;;;;0.17;0.17;;;;;;;18.84;96.61;100260.28;5048745;28;20049;-88
2021/07/14 05:23:48;;;;;;;0.10;0.10;;;;;;;18.82;96.78;100252.38;5049348;28;20045;-88
2021/07/14 05:26:22;;;;;;;0.10;0.10;;;;;;;18.86;97.33;100246.94;5030008;28;20425;-89
2021/07/14 05:28:55;;;;;;;0.10;0.10;;;;;;;18.82;96.92;100246.88;5050117;28;20048;-88
2021/07/14 05:31:30;;;;;;;0.10;0.10;;;;;;;18.78;97.40;100242.38;5047385;28;20429;-89
2021/07/14 05:34:05;;;;;;;0.20;0.20;;;;;;;18.72;97.37;100228.03;5025967;28;20057;-88
2021/07/14 05:36:44;;;;;;;0.20;0.20;;;;;;;18.75;97.30;100213.53;5031569;28;20045;-88
2021/07/14 05:39:17;;;;;;;0.20;0.20;;;;;;;18.85;97.59;100210.31;5037192;28;20037;-88
2021/07/14 05:41:50;;;;;;;0.10;0.10;;;;;;;18.80;97.74;100204.25;5043966;28;20414;-88
2021/07/14 05:44:19;;;;;;;0.10;0.10;;;;;;;18.78;97.77;100207.34;5030933;28;20056;-88
2021/07/14 05:46:54;;;;;;;0.10;0.10;;;;;;;18.77;97.97;100194.72;5031398;28;20061;-88
2021/07/14 05:49:30;;;;;;;0.20;0.20;;;;;;;18.95;98.19;100200.78;5031965;28;20042;-88
2021/07/14 05:52:08;;;;;;;0.20;0.20;;;;;;;18.86;97.64;100205.59;5042690;28;20052;-88
2021/07/14 05:54:41;;;;;;;0.10;0.10;;;;;;;18.97;97.26;100215.03;5033656;28;20048;-89
2021/07/14 05:57:14;;;;;;;0.10;0.10;;;;;;;18.82;97.57;100216.53;5052202;28;20045;-87
2021/07/14 05:59:48;;;;;;;0.10;0.10;;;;;;;18.92;97.64;100215.28;5033733;28;20053;-86
2021/07/14 06:02:22;;;;;;;0.17;0.17;;;;;;;18.89;97.98;100206.88;5041160;28;20064;-86
2021/07/14 06:05:04;;;;;;;0.10;0.10;;;;;;;18.83;98.15;100209.84;5030324;28;20064;-86
2021/07/14 06:07:39;;;;;;;0.10;0.10;;;;;;;18.95;98.60;100211.81;5050046;28;20047;-87
2021/07/14 06:10:14;;;;;;;0.10;0.10;;;;;;;18.93;98.97;100216.06;5014704;28;20064;-87
2021/07/14 06:12:42;;;;;;;0.10;0.10;;;;;;;19.07;97.88;100202.72;5013230;28;20064;-85
2021/07/14 06:15:11;;;;;;;0.10;0.10;;;;;;;18.96;98.88;100205.16;5013231;28;20410;-86
2021/07/14 06:17:44;;;;;;;0.10;0.10;;;;;;;19.05;98.85;100218.00;5016766;28;20053;-86
2021/07/14 06:20:14;;;;;;;0.20;0.20;;;;;;;19.05;98.21;100202.25;5014036;28;20064;-85
2021/07/14 06:22:48;;;;;;;0.10;0.10;;;;;;;19.06;98.05;100192.03;5031330;28;20049;-85
2021/07/14 06:25:21;;;;;;;0.10;0.10;;;;;;;19.15;98.30;100187.16;5035550;28;20045;-86
2021/07/14 06:28:00;;;;;;;0.10;0.10;;;;;;;19.22;98.54;100198.41;5031830;28;20406;-88
2021/07/14 06:30:35;;;;;;;0.10;0.10;;;;;;;19.37;97.87;100213.41;5013850;28;20512;-88
2021/07/14 06:33:03;;;;;;;0.10;0.10;;;;;;;19.65;96.90;100223.63;5020531;28;20055;-88
2021/07/14 06:35:34;;;;;;;0.20;0.20;;;;;;;19.69;97.39;100219.00;5033291;28;20053;-87
2021/07/14 06:38:07;;;;;;;0.20;0.20;;;;;;;19.78;96.51;100211.38;5051996;28;20566;-87
2021/07/14 06:40:41;;;;;;;0.13;0.13;;;;;;;19.69;97.00;100216.25;5048123;28;20049;-89
2021/07/14 06:43:14;;;;;;;0.10;0.10;;;;;;;19.86;95.66;100206.88;5044084;28;20079;-87
2021/07/14 06:45:53;;;;;;;0.10;0.10;;;;;;;20.04;95.50;100205.38;5036564;28;20045;-88
2021/07/14 06:48:27;;;;;;;0.10;0.10;;;;;;;20.34;94.88;100201.34;5041643;28;20045;-86
2021/07/14 06:51:09;;;;;;;0.10;0.10;;;;;;;20.51;93.54;100189.94;5031775;28;20049;-93
2021/07/14 06:54:06;;;;;;;0.10;0.10;;;;;;;20.85;94.42;100184.78;5013369;28;20437;-86
2021/07/14 06:56:35;;;;;;;0.10;0.10;;;;;;;21.00;92.18;100199.72;5028782;28;20076;-88
2021/07/14 06:59:09;;;;;;;0.10;0.10;;;;;;;21.00;92.58;100191.41;5026225;28;20046;-87
2021/07/14 07:01:42;;;;;;;0.10;0.10;;;;;;;21.19;92.74;100196.16;5030654;28;20055;-86
2021/07/14 07:04:16;;;;;;;0.20;0.20;;;;;;;21.29;89.10;100189.22;5048204;28;20485;-85
2021/07/14 07:06:45;;;;;;;0.10;0.10;;;;;;;21.19;91.09;100192.59;5047250;28;20055;-85
2021/07/14 07:09:23;;;;;;;0.10;0.10;;;;;;;21.27;90.75;100188.00;5033708;28;20052;-87
2021/07/14 07:11:57;;;;;;;0.10;0.10;;;;;;;21.25;89.76;100196.66;5050365;28;20049;-84
2021/07/14 07:14:31;;;;;;;0.10;0.10;;;;;;;21.16;88.75;100194.13;5030971;28;20429;-85
2021/07/14 07:17:05;;;;;;;0.10;0.10;;;;;;;21.11;90.42;100188.88;5046719;28;20060;-85
2021/07/14 07:19:33;;;;;;;0.10;0.10;;;;;;;21.15;88.51;100200.03;5029893;28;20067;-86
2021/07/14 07:22:03;;;;;;;0.10;0.10;;;;;;;21.03;90.24;100192.66;5047839;28;20678;-85
2021/07/14 07:24:37;;;;;;;0.10;0.10;;;;;;;21.22;90.16;100198.19;5025881;28;20048;-85
2021/07/14 07:27:08;;;;;;;0.10;0.10;;;;;;;21.55;88.06;100185.03;5042043;28;20048;-86
2021/07/14 07:29:44;;;;;;;0.10;0.10;;;;;;;21.62;88.59;100163.00;5024509;28;20112;-85
2021/07/14 07:32:14;;;;;;;0.10;0.10;;;;;;;21.63;88.49;100172.13;5022989;28;20064;-87
2021/07/14 07:34:47;;;;;;;0.10;0.10;;;;;;;21.71;88.85;100166.34;5040340;28;20049;-85
2021/07/14 07:37:26;;;;;;;0.10;0.10;;;;;;;21.68;87.90;100171.81;5018076;28;20067;-87
2021/07/14 07:40:00;;;;;;;0.10;0.10;;;;;;;21.68;86.64;100166.25;5048548;28;20508;-86
2021/07/14 07:42:35;;;;;;;0.10;0.10;;;;;;;21.62;88.08;100153.91;5045134;28;20055;-85
2021/07/14 07:45:09;;;;;;;0.10;0.10;;;;;;;21.78;88.25;100156.53;5020252;28;20666;-87
2021/07/14 07:47:46;;;;;;;0.10;0.10;;;;;;;22.14;87.63;100162.66;5020195;28;20440;-85
2021/07/14 07:50:16;;;;;;;0.10;0.10;;;;;;;21.97;86.71;100159.28;5019559;28;20059;-85
2021/07/14 07:52:46;;;;;;;0.10;0.10;;;;;;;21.79;87.84;100147.06;5021975;28;20056;-86
2021/07/14 07:55:19;;;;;;;0.10;0.10;;;;;;;21.90;88.20;100148.88;5037023;28;20056;-85
2021/07/14 07:57:53;;;;;;;0.10;0.10;;;;;;;21.81;85.36;100134.47;5025688;28;20059;-86
2021/07/14 08:00:22;;;;;;;0.10;0.10;;;;;;;22.17;86.07;100153.63;5024778;28;20057;-85
2021/07/14 08:02:52;;;;;;;0.10;0.10;;;;;;;22.09;84.87;100149.94;5028299;28;20103;-87
2021/07/14 08:05:26;;;;;;;0.10;0.10;;;;;;;22.17;84.74;100162.75;5016612;28;20067;-86
2021/07/14 08:08:01;;;;;;;0.10;0.10;;;;;;;22.31;85.32;100159.38;5021219;28;20049;-88
2021/07/14 08:10:35;;;;;;;0.10;0.10;;;;;;;22.54;82.52;100161.34;5021673;28;20053;-88
2021/07/14 08:13:09;;;;;;;0.10;0.10;;;;;;;22.61;85.75;100166.19;5043072;28;20890;-85
2021/07/14 08:15:43;;;;;;;0.10;0.10;;;;;;;23.01;83.15;100161.97;5041545;28;20485;-86
2021/07/14 08:18:24;;;;;;;0.10;0.10;;;;;;;23.03;81.43;100165.16;5024565;28;20076;-86
2021/07/14 08:20:56;;;;;;;0.10;0.10;;;;;;;23.10;81.68;100173.56;5016313;28;20057;-86
2021/07/14 08:23:33;;;;;;;0.10;0.10;;;;;;;23.21;81.99;100171.75;5017819;28;20052;-86
2021/07/14 08:26:07;;;;;;;0.10;0.10;;;;;;;22.97;81.04;100161.13;5037848;28;20052;-86
2021/07/14 08:28:44;;;;;;;0.10;0.10;;;;;;;22.98;82.58;100171.03;5018479;28;20063;-87
2021/07/14 08:31:17;;;;;;;0.10;0.10;;;;;;;23.11;81.12;100177.94;5016748;28;20403;-84
2021/07/14 08:33:46;;;;;;;0.10;0.10;;;;;;;22.87;79.41;100179.22;5021231;28;20064;-86
2021/07/14 08:36:19;;;;;;;0.10;0.10;;;;;;;22.80;80.63;100185.50;5022643;28;20057;-86
2021/07/14 08:38:50;;;;;;;0.10;0.10;;;;;;;22.83;80.41;100187.50;5018196;28;20057;-86
2021/07/14 08:41:21;;;;;;;0.10;0.10;;;;;;;23.04;82.13;100177.88;5011846;28;20468;-85
2021/07/14 08:43:56;;;;;;;0.10;0.10;;;;;;;23.17;81.65;100175.66;5019446;28;20067;-87
2021/07/14 08:46:30;;;;;;;0.10;0.10;;;;;;;23.01;79.13;100171.09;5041147;28;20056;-86
2021/07/14 08:49:05;;;;;;;0.10;0.10;;;;;;;23.06;80.09;100184.63;5017566;28;20064;-87
2021/07/14 08:51:39;;;;;;;0.10;0.10;;;;;;;23.18;80.11;100182.81;5039546;28;20049;-87
2021/07/14 08:54:15;;;;;;;0.10;0.10;;;;;;;23.25;82.70;100174.56;5017036;28;20053;-87
2021/07/14 08:56:50;;;;;;;0.10;0.10;;;;;;;23.58;81.41;100165.41;5038746;28;20066;-87
2021/07/14 08:59:26;;;;;;;0.10;0.10;;;;;;;23.78;79.31;100181.84;5017224;28;20059;-85
2021/07/14 09:02:00;;;;;;;0.10;0.10;;;;;;;23.77;80.48;100178.28;5036281;28;20053;-88
2021/07/14 09:04:33;;;;;;;0.10;0.10;;;;;;;23.74;79.34;100183.84;5015496;28;20060;-86
2021/07/14 09:07:07;;;;;;;0.20;0.10;;;;;;;23.98;79.30;100188.03;5017133;28;20068;-85
2021/07/14 09:09:38;;;;;;;0.10;0.10;;;;;;;23.86;78.12;100179.97;5008759;28;20063;-87
2021/07/14 09:12:13;;;;;;;0.10;0.10;;;;;;;23.98;79.30;100187.25;5010425;28;20048;-86
2021/07/14 09:14:48;;;;;;;0.10;0.10;;;;;;;23.91;77.96;100180.44;5012231;28;20060;-87
2021/07/14 09:17:23;;;;;;;0.17;0.10;;;;;;;23.93;77.64;100189.19;5019833;28;20100;-87
2021/07/14 09:20:02;;;;;;;0.10;0.10;;;;;;;23.43;78.94;100149.78;5013054;28;20060;-87
2021/07/14 09:22:35;;;;;;;0.10;0.10;;;;;;;23.59;77.68;100177.34;5018150;28;20067;-86
2021/07/14 09:25:13;;;;;;;0.10;0.10;;;;;;;23.50;78.61;100183.16;5015294;28;20469;-88
2021/07/14 09:27:55;;;;;;;0.10;0.10;;;;;;;23.45;79.73;100175.19;5018265;28;20059;-87
2021/07/14 09:30:29;;;;;;;0.10;0.10;;;;;;;23.49;80.48;100172.44;5013882;28;20493;-88
2021/07/14 09:33:04;;;;;;;0.10;0.10;;;;;;;23.55;78.32;100174.50;5036027;28;20064;-87
2021/07/14 09:35:41;;;;;;;0.10;0.10;;;;;;;23.83;78.23;100164.84;5016621;28;20056;-87
2021/07/14 09:38:16;;;;;;;0.10;0.10;;;;;;;23.92;78.28;100162.59;5021447;28;20417;-87
2021/07/14 09:41:04;;;;;;;0.10;0.10;;;;;;;24.06;78.42;100158.34;5024139;28;20059;-87
2021/07/14 09:43:40;;;;;;;0.10;0.10;;;;;;;24.12;76.73;100137.31;5028937;28;20052;-87
2021/07/14 09:46:20;;;;;;;0.10;0.10;;;;;;;24.21;77.46;100153.66;5025390;28;20067;-88
2021/07/14 09:48:53;;;;;;;0.10;0.10;;;;;;;24.42;74.67;100147.47;5022678;28;20307;-87
2021/07/14 09:51:28;;;;;;;0.10;0.10;;;;;;;24.39;75.07;100159.38;5050366;28;20055;-86
2021/07/14 09:54:03;;;;;;;0.10;0.10;;;;;;;24.26;74.77;100148.56;5021170;28;20059;-86
2021/07/14 09:56:36;;;;;;;0.10;0.10;;;;;;;24.77;73.59;100160.00;5024138;28;20057;-87
2021/07/14 09:59:11;;;;;;;0.22;0.10;;;;;;;24.84;75.55;100150.91;5024115;28;20057;-87
2021/07/14 10:01:49;;;;;;;0.10;0.10;;;;;;;24.54;75.83;100160.25;5044654;28;20053;-87
2021/07/14 10:04:32;;;;;;;0.10;0.10;;;;;;;24.33;77.01;100166.47;5016330;28;20465;-87
2021/07/14 10:07:10;;;;;;;0.10;0.10;;;;;;;24.44;77.56;100168.16;5041878;28;20108;-87
2021/07/14 10:09:47;;;;;;;0.10;0.10;;;;;;;25.01;77.20;100166.06;5025581;28;20063;-87
2021/07/14 10:12:39;;;;;;;0.00;0.00;;;;;;;25.13;76.37;100165.72;5024945;28;20523;-86
2021/07/14 10:15:22;;;;;;;0.10;0.10;;;;;;;24.80;74.49;100167.56;5045638;28;20056;-87
2021/07/14 10:17:57;;;;;;;0.10;0.10;;;;;;;24.61;74.20;100175.03;5024176;28;20057;-85
2021/07/14 10:21:01;;;;;;;0.10;0.10;;;;;;;24.86;76.87;100179.94;5023056;28;20099;-87
2021/07/14 10:23:30;;;;;;;0.10;0.10;;;;;;;25.02;73.45;100162.88;5020923;28;20064;-87
2021/07/14 10:26:06;;;;;;;0.17;0.17;;;;;;;25.47;71.18;100176.59;5019599;28;20052;-86
2021/07/14 10:28:45;;;;;;;0.10;0.10;;;;;;;25.22;72.29;100162.59;5025773;28;20409;-86
2021/07/14 10:31:14;;;;;;;0.10;0.10;;;;;;;25.69;72.28;100173.88;5023659;28;20057;-86
2021/07/14 10:33:45;;;;;;;0.10;0.10;;;;;;;26.60;68.44;100184.59;5028715;28;20147;-85
2021/07/14 10:36:22;;;;;;;0.10;0.10;;;;;;;26.47;65.29;100184.25;5026551;28;20060;-86
2021/07/14 10:38:59;;;;;;;0.10;0.10;;;;;;;26.29;69.24;100186.25;5025001;28;20056;-86
2021/07/14 10:41:33;;;;;;;0.10;0.10;;;;;;;26.14;69.96;100188.25;5044990;28;20052;-86
2021/07/14 10:44:09;;;;;;;0.10;0.10;;;;;;;25.88;69.74;100178.25;5029087;28;20075;-87
2021/07/14 10:46:47;;;;;;;0.10;0.10;;;;;;;26.20;67.24;100181.09;5025194;28;20057;-86
2021/07/14 10:49:18;;;;;;;0.10;0.10;;;;;;;25.61;69.14;100168.25;5028181;28;20302;-87
2021/07/14 10:51:51;;;;;;;0.10;0.10;;;;;;;25.81;70.40;100173.47;5025418;28;20063;-85
2021/07/14 10:54:26;;;;;;;0.10;0.10;;;;;;;26.23;66.66;100183.06;5024814;28;20057;-86
2021/07/14 10:57:24;;;;;;;0.10;0.10;;;;;;;26.44;70.72;100176.66;5023269;28;20064;-86
2021/07/14 11:00:01;;;;;;;0.15;0.15;;;;;;;26.48;68.45;100171.09;5026581;28;20057;-87
2021/07/14 11:02:41;;;;;;;0.10;0.10;;;;;;;26.07;70.49;100188.25;5015716;28;20072;-86
2021/07/14 11:05:33;;;;;;;0.10;0.10;;;;;;;26.18;69.18;100169.50;5023841;28;20059;-86
2021/07/14 11:08:06;;;;;;;;;;;;;;;26.36;67.49;100169.50;5029011;28;20404;-86
2021/07/14 11:10:41;;;;;;;0.10;0.10;;;;;;;26.49;63.18;100169.88;5019421;28;19928;-86
2021/07/14 11:13:31;;;;;;;0.10;0.10;;;;;;;26.31;64.78;100159.53;5022557;28;20053;-86
2021/07/14 11:16:25;;;;;;;0.10;0.10;;;;;;;26.41;65.72;100157.94;5021626;28;20980;-86
2021/07/14 11:19:01;;;;;;;0.10;0.10;;;;;;;26.68;68.00;100149.13;5026658;28;20420;-87
2021/07/14 11:21:52;;;;;;;0.10;0.10;;;;;;;26.88;66.73;100138.28;5037894;28;20666;-86
2021/07/14 11:24:57;;;;;;;0.10;0.10;;;;;;;27.07;62.91;100142.59;5020399;28;20055;-88
2021/07/14 11:27:48;;;;;;;0.10;0.10;;;;;;;26.94;68.05;100144.25;5033871;28;20053;-87
2021/07/14 11:30:32;;;;;;;0.10;0.10;;;;;;;26.34;68.96;100144.00;5044029;28;20878;-86
2021/07/14 11:33:09;;;;;;;0.10;0.10;;;;;;;26.11;65.77;100145.22;5037660;28;20055;-89
2021/07/14 11:35:45;;;;;;;0.10;0.10;;;;;;;25.95;69.38;100139.25;5022464;28;20049;-86
2021/07/14 11:38:22;;;;;;;0.10;0.10;;;;;;;26.02;68.60;100130.09;5015859;28;20053;-86
2021/07/14 11:41:02;;;;;;;0.10;0.10;;;;;;;26.59;63.23;100135.56;5042997;28;20685;-87
2021/07/14 11:43:43;;;;;;;0.10;0.10;;;;;;;26.90;66.43;100132.31;5047002;28;20054;-87
2021/07/14 11:46:15;;;;;;;0.10;0.10;;;;;;;26.86;71.87;100128.72;5022741;28;20068;-87
2021/07/14 11:49:00;;;;;;;0.10;0.10;;;;;;;26.40;69.47;100128.44;5019082;28;20590;-87
2021/07/14 11:51:36;;;;;;;0.17;0.17;;;;;;;26.56;67.63;100135.59;5022302;28;20057;-87
2021/07/14 11:54:25;;;;;;;0.10;0.10;;;;;;;26.80;67.88;100137.50;5020491;28;20071;-87
2021/07/14 11:56:54;;;;;;;0.10;0.10;;;;;;;27.04;67.55;100140.63;5014137;28;20049;-87
2021/07/14 11:59:29;;;;;;;0.13;0.13;;;;;;;27.03;63.48;100139.03;5024523;28;20057;-87
2021/07/14 12:02:03;;;;;;;0.10;0.10;;;;;;;27.03;65.78;100146.63;4994420;28;20056;-87
2021/07/14 12:04:38;;;;;;;0.10;0.10;;;;;;;26.73;65.83;100137.53;5022023;28;20048;-87
2021/07/14 12:07:16;;;;;;;0.10;0.10;;;;;;;27.28;60.29;100141.69;5020774;28;20049;-86
2021/07/14 12:09:53;;;;;;;0.10;0.10;;;;;;;27.09;61.43;100153.38;5019498;28;20069;-87